sensor_id;sensor_type;location;lat;lon;timestamp;P1;durP1;ratioP1;P2;durP2;ratioP2
24826;SDS011;12910;57.690;11.974;2022-12-10T00:01:17;1.20;;;1.10;;
24826;SDS011;12910;57.690;11.974;2022-12-10T00:03:44;1.27;;;1.17;;
24826;SDS011;12910;57.690;11.974;2022-12-10T00:06:11;1.23;;;1.17;;
24826;SDS011;12910;57.690;11.974;2022-12-10T00:08:39;1.20;;;1.00;;
24826;SDS011;12910;57.690;11.974;2022-12-10T00:11:05;1.17;;;1.13;;
24826;SDS011;12910;57.690;11.974;2022-12-10T00:13:32;1.43;;;1.33;;
24826;SDS011;12910;57.690;11.974;2022-12-10T00:15:59;3.20;;;1.00;;
24826;SDS011;12910;57.690;11.974;2022-12-10T00:18:25;0.93;;;0.90;;
24826;SDS011;12910;57.690;11.974;2022-12-10T00:20:50;2.07;;;1.30;;
24826;SDS011;12910;57.690;11.974;2022-12-10T00:23:16;1.10;;;1.10;;
24826;SDS011;12910;57.690;11.974;2022-12-10T00:25:41;0.80;;;0.80;;
24826;SDS011;12910;57.690;11.974;2022-12-10T00:28:07;1.20;;;1.10;;
24826;SDS011;12910;57.690;11.974;2022-12-10T00:30:33;1.00;;;1.00;;
24826;SDS011;12910;57.690;11.974;2022-12-10T00:32:58;1.23;;;1.23;;
24826;SDS011;12910;57.690;11.974;2022-12-10T00:35:23;1.13;;;1.10;;
24826;SDS011;12910;57.690;11.974;2022-12-10T00:37:49;1.50;;;1.20;;
24826;SDS011;12910;57.690;11.974;2022-12-10T00:40:14;0.90;;;0.90;;
24826;SDS011;12910;57.690;11.974;2022-12-10T00:42:39;1.03;;;1.00;;
24826;SDS011;12910;57.690;11.974;2022-12-10T00:45:05;1.50;;;1.40;;
24826;SDS011;12910;57.690;11.974;2022-12-10T00:47:30;0.90;;;0.90;;
24826;SDS011;12910;57.690;11.974;2022-12-10T00:49:56;1.20;;;1.00;;
24826;SDS011;12910;57.690;11.974;2022-12-10T00:52:21;1.20;;;1.10;;
24826;SDS011;12910;57.690;11.974;2022-12-10T00:54:46;0.70;;;0.70;;
24826;SDS011;12910;57.690;11.974;2022-12-10T00:57:12;2.43;;;1.10;;
24826;SDS011;12910;57.690;11.974;2022-12-10T00:59:37;1.30;;;1.20;;
24826;SDS011;12910;57.690;11.974;2022-12-10T01:02:03;1.10;;;1.00;;
24826;SDS011;12910;57.690;11.974;2022-12-10T01:04:28;1.60;;;1.50;;
24826;SDS011;12910;57.690;11.974;2022-12-10T01:06:53;1.13;;;1.10;;
24826;SDS011;12910;57.690;11.974;2022-12-10T01:09:23;1.47;;;1.03;;
24826;SDS011;12910;57.690;11.974;2022-12-10T01:11:51;1.40;;;1.30;;
24826;SDS011;12910;57.690;11.974;2022-12-10T01:14:19;1.30;;;1.10;;
24826;SDS011;12910;57.690;11.974;2022-12-10T01:16:54;1.50;;;1.40;;
24826;SDS011;12910;57.690;11.974;2022-12-10T01:19:21;1.57;;;1.40;;
24826;SDS011;12910;57.690;11.974;2022-12-10T01:21:53;1.80;;;1.30;;
24826;SDS011;12910;57.690;11.974;2022-12-10T01:24:20;1.37;;;1.27;;
24826;SDS011;12910;57.690;11.974;2022-12-10T01:26:46;4.07;;;1.40;;
24826;SDS011;12910;57.690;11.974;2022-12-10T01:29:12;1.60;;;1.50;;
24826;SDS011;12910;57.690;11.974;2022-12-10T01:31:38;1.50;;;1.40;;
24826;SDS011;12910;57.690;11.974;2022-12-10T01:34:04;0.97;;;0.97;;
24826;SDS011;12910;57.690;11.974;2022-12-10T01:36:36;1.33;;;1.27;;
24826;SDS011;12910;57.690;11.974;2022-12-10T01:39:11;2.33;;;1.67;;
24826;SDS011;12910;57.690;11.974;2022-12-10T01:41:39;4.20;;;1.77;;
24826;SDS011;12910;57.690;11.974;2022-12-10T01:46:36;1.70;;;1.40;;
24826;SDS011;12910;57.690;11.974;2022-12-10T01:49:04;2.57;;;1.40;;
24826;SDS011;12910;57.690;11.974;2022-12-10T01:51:32;1.70;;;1.60;;
24826;SDS011;12910;57.690;11.974;2022-12-10T01:53:59;1.40;;;1.30;;
24826;SDS011;12910;57.690;11.974;2022-12-10T01:56:26;1.50;;;1.40;;
24826;SDS011;12910;57.690;11.974;2022-12-10T01:58:54;0.83;;;0.83;;
24826;SDS011;12910;57.690;11.974;2022-12-10T02:15:14;1.23;;;1.17;;
24826;SDS011;12910;57.690;11.974;2022-12-10T02:17:48;1.00;;;1.00;;
24826;SDS011;12910;57.690;11.974;2022-12-10T02:22:52;1.23;;;0.90;;
24826;SDS011;12910;57.690;11.974;2022-12-10T02:25:29;0.70;;;0.70;;
24826;SDS011;12910;57.690;11.974;2022-12-10T02:28:17;0.80;;;0.80;;
24826;SDS011;12910;57.690;11.974;2022-12-10T02:30:50;2.20;;;0.97;;
24826;SDS011;12910;57.690;11.974;2022-12-10T02:33:18;1.33;;;1.27;;
24826;SDS011;12910;57.690;11.974;2022-12-10T02:35:47;1.40;;;1.30;;
24826;SDS011;12910;57.690;11.974;2022-12-10T02:38:17;1.40;;;1.30;;
24826;SDS011;12910;57.690;11.974;2022-12-10T02:40:48;1.23;;;1.20;;
24826;SDS011;12910;57.690;11.974;2022-12-10T02:43:17;1.50;;;1.40;;
24826;SDS011;12910;57.690;11.974;2022-12-10T02:45:44;1.13;;;1.10;;
24826;SDS011;12910;57.690;11.974;2022-12-10T02:48:10;1.30;;;1.20;;
24826;SDS011;12910;57.690;11.974;2022-12-10T02:50:37;1.20;;;1.00;;
24826;SDS011;12910;57.690;11.974;2022-12-10T02:53:02;1.50;;;1.40;;
24826;SDS011;12910;57.690;11.974;2022-12-10T02:55:29;1.50;;;1.33;;
24826;SDS011;12910;57.690;11.974;2022-12-10T03:00:44;1.30;;;1.20;;
24826;SDS011;12910;57.690;11.974;2022-12-10T03:06:45;1.37;;;1.27;;
24826;SDS011;12910;57.690;11.974;2022-12-10T03:09:19;1.27;;;1.17;;
24826;SDS011;12910;57.690;11.974;2022-12-10T03:11:48;1.50;;;1.40;;
24826;SDS011;12910;57.690;11.974;2022-12-10T03:14:25;1.73;;;1.27;;
24826;SDS011;12910;57.690;11.974;2022-12-10T03:16:55;1.70;;;1.60;;
24826;SDS011;12910;57.690;11.974;2022-12-10T03:19:23;1.30;;;1.20;;
24826;SDS011;12910;57.690;11.974;2022-12-10T03:21:54;1.73;;;1.63;;
24826;SDS011;12910;57.690;11.974;2022-12-10T03:24:22;1.40;;;1.30;;
24826;SDS011;12910;57.690;11.974;2022-12-10T03:26:48;1.33;;;1.33;;
24826;SDS011;12910;57.690;11.974;2022-12-10T03:29:17;1.30;;;1.30;;
24826;SDS011;12910;57.690;11.974;2022-12-10T03:31:48;1.30;;;1.20;;
24826;SDS011;12910;57.690;11.974;2022-12-10T03:34:15;1.50;;;1.40;;
24826;SDS011;12910;57.690;11.974;2022-12-10T03:36:41;1.67;;;1.57;;
24826;SDS011;12910;57.690;11.974;2022-12-10T03:39:07;1.53;;;1.43;;
24826;SDS011;12910;57.690;11.974;2022-12-10T03:41:33;1.60;;;1.50;;
24826;SDS011;12910;57.690;11.974;2022-12-10T03:43:59;1.00;;;0.93;;
24826;SDS011;12910;57.690;11.974;2022-12-10T03:46:26;1.43;;;1.33;;
24826;SDS011;12910;57.690;11.974;2022-12-10T03:48:53;1.30;;;1.20;;
24826;SDS011;12910;57.690;11.974;2022-12-10T03:51:19;1.57;;;1.47;;
24826;SDS011;12910;57.690;11.974;2022-12-10T03:53:45;1.60;;;1.50;;
24826;SDS011;12910;57.690;11.974;2022-12-10T03:56:11;1.30;;;1.20;;
24826;SDS011;12910;57.690;11.974;2022-12-10T03:58:36;1.50;;;1.40;;
24826;SDS011;12910;57.690;11.974;2022-12-10T04:01:03;1.50;;;1.03;;
24826;SDS011;12910;57.690;11.974;2022-12-10T04:03:29;1.43;;;1.40;;
24826;SDS011;12910;57.690;11.974;2022-12-10T04:05:54;1.23;;;1.13;;
24826;SDS011;12910;57.690;11.974;2022-12-10T04:08:26;1.27;;;1.17;;
24826;SDS011;12910;57.690;11.974;2022-12-10T04:10:51;1.07;;;1.07;;
24826;SDS011;12910;57.690;11.974;2022-12-10T04:13:17;1.00;;;1.00;;
24826;SDS011;12910;57.690;11.974;2022-12-10T04:16:01;1.20;;;1.07;;
24826;SDS011;12910;57.690;11.974;2022-12-10T04:18:45;2.17;;;1.33;;
24826;SDS011;12910;57.690;11.974;2022-12-10T04:21:10;1.30;;;1.30;;
24826;SDS011;12910;57.690;11.974;2022-12-10T04:23:54;1.37;;;1.27;;
24826;SDS011;12910;57.690;11.974;2022-12-10T04:26:38;1.07;;;1.07;;
24826;SDS011;12910;57.690;11.974;2022-12-10T04:29:19;1.20;;;1.10;;
24826;SDS011;12910;57.690;11.974;2022-12-10T04:31:46;1.60;;;1.50;;
24826;SDS011;12910;57.690;11.974;2022-12-10T04:34:11;1.67;;;1.57;;
24826;SDS011;12910;57.690;11.974;2022-12-10T04:36:37;1.60;;;1.50;;
24826;SDS011;12910;57.690;11.974;2022-12-10T04:39:02;1.40;;;1.30;;
24826;SDS011;12910;57.690;11.974;2022-12-10T04:41:28;1.73;;;1.63;;
24826;SDS011;12910;57.690;11.974;2022-12-10T04:43:54;1.40;;;1.30;;
24826;SDS011;12910;57.690;11.974;2022-12-10T04:46:19;1.63;;;1.53;;
24826;SDS011;12910;57.690;11.974;2022-12-10T04:48:44;1.50;;;1.40;;
24826;SDS011;12910;57.690;11.974;2022-12-10T04:51:10;1.63;;;1.53;;
24826;SDS011;12910;57.690;11.974;2022-12-10T04:53:35;1.57;;;1.43;;
24826;SDS011;12910;57.690;11.974;2022-12-10T04:56:00;1.60;;;1.50;;
24826;SDS011;12910;57.690;11.974;2022-12-10T04:58:26;1.37;;;1.27;;
24826;SDS011;12910;57.690;11.974;2022-12-10T05:01:00;1.90;;;1.77;;
24826;SDS011;12910;57.690;11.974;2022-12-10T05:03:27;1.63;;;1.53;;
24826;SDS011;12910;57.690;11.974;2022-12-10T05:05:52;1.37;;;1.27;;
24826;SDS011;12910;57.690;11.974;2022-12-10T05:08:18;1.67;;;1.57;;
24826;SDS011;12910;57.690;11.974;2022-12-10T05:10:43;1.30;;;1.20;;
24826;SDS011;12910;57.690;11.974;2022-12-10T05:13:08;1.47;;;1.37;;
24826;SDS011;12910;57.690;11.974;2022-12-10T05:15:37;1.37;;;1.27;;
24826;SDS011;12910;57.690;11.974;2022-12-10T05:18:03;1.67;;;1.57;;
24826;SDS011;12910;57.690;11.974;2022-12-10T05:20:28;1.80;;;1.70;;
24826;SDS011;12910;57.690;11.974;2022-12-10T05:22:53;1.53;;;1.43;;
24826;SDS011;12910;57.690;11.974;2022-12-10T05:25:37;1.50;;;1.40;;
24826;SDS011;12910;57.690;11.974;2022-12-10T05:28:18;1.80;;;1.70;;
24826;SDS011;12910;57.690;11.974;2022-12-10T05:30:47;1.50;;;1.40;;
24826;SDS011;12910;57.690;11.974;2022-12-10T05:33:12;1.57;;;1.47;;
24826;SDS011;12910;57.690;11.974;2022-12-10T05:35:38;1.37;;;1.27;;
24826;SDS011;12910;57.690;11.974;2022-12-10T05:38:03;1.30;;;1.20;;
24826;SDS011;12910;57.690;11.974;2022-12-10T05:40:30;1.17;;;1.10;;
24826;SDS011;12910;57.690;11.974;2022-12-10T05:42:55;1.63;;;1.53;;
24826;SDS011;12910;57.690;11.974;2022-12-10T05:45:21;1.37;;;1.27;;
24826;SDS011;12910;57.690;11.974;2022-12-10T05:47:46;1.50;;;1.40;;
24826;SDS011;12910;57.690;11.974;2022-12-10T05:50:12;1.90;;;1.80;;
24826;SDS011;12910;57.690;11.974;2022-12-10T05:52:37;1.33;;;1.23;;
24826;SDS011;12910;57.690;11.974;2022-12-10T05:55:02;1.40;;;1.30;;
24826;SDS011;12910;57.690;11.974;2022-12-10T05:57:28;1.27;;;1.10;;
24826;SDS011;12910;57.690;11.974;2022-12-10T05:59:53;1.37;;;1.27;;
24826;SDS011;12910;57.690;11.974;2022-12-10T06:02:19;2.10;;;2.00;;
24826;SDS011;12910;57.690;11.974;2022-12-10T06:04:44;1.63;;;1.33;;
24826;SDS011;12910;57.690;11.974;2022-12-10T06:07:09;1.70;;;1.60;;
24826;SDS011;12910;57.690;11.974;2022-12-10T06:09:35;1.87;;;1.77;;
24826;SDS011;12910;57.690;11.974;2022-12-10T06:12:00;1.20;;;1.20;;
24826;SDS011;12910;57.690;11.974;2022-12-10T06:14:25;2.83;;;1.60;;
24826;SDS011;12910;57.690;11.974;2022-12-10T06:16:51;1.70;;;1.60;;
24826;SDS011;12910;57.690;11.974;2022-12-10T06:19:16;3.53;;;1.30;;
24826;SDS011;12910;57.690;11.974;2022-12-10T06:21:41;1.30;;;1.20;;
24826;SDS011;12910;57.690;11.974;2022-12-10T06:24:07;2.13;;;1.97;;
24826;SDS011;12910;57.690;11.974;2022-12-10T06:26:32;1.43;;;1.37;;
24826;SDS011;12910;57.690;11.974;2022-12-10T06:28:57;1.43;;;1.33;;
24826;SDS011;12910;57.690;11.974;2022-12-10T06:31:23;1.60;;;1.50;;
24826;SDS011;12910;57.690;11.974;2022-12-10T06:33:48;1.57;;;1.47;;
24826;SDS011;12910;57.690;11.974;2022-12-10T06:36:14;1.57;;;1.47;;
24826;SDS011;12910;57.690;11.974;2022-12-10T06:38:41;1.27;;;1.23;;
24826;SDS011;12910;57.690;11.974;2022-12-10T06:41:07;1.30;;;1.20;;
24826;SDS011;12910;57.690;11.974;2022-12-10T06:43:35;1.70;;;1.60;;
24826;SDS011;12910;57.690;11.974;2022-12-10T06:46:11;1.57;;;1.47;;
24826;SDS011;12910;57.690;11.974;2022-12-10T06:48:38;1.50;;;1.40;;
24826;SDS011;12910;57.690;11.974;2022-12-10T06:51:05;1.60;;;1.50;;
24826;SDS011;12910;57.690;11.974;2022-12-10T06:53:31;1.60;;;1.50;;
24826;SDS011;12910;57.690;11.974;2022-12-10T06:55:59;1.60;;;1.50;;
24826;SDS011;12910;57.690;11.974;2022-12-10T06:58:29;1.70;;;1.60;;
24826;SDS011;12910;57.690;11.974;2022-12-10T07:01:02;1.40;;;1.30;;
24826;SDS011;12910;57.690;11.974;2022-12-10T07:03:28;2.07;;;1.97;;
24826;SDS011;12910;57.690;11.974;2022-12-10T07:05:56;1.47;;;1.37;;
24826;SDS011;12910;57.690;11.974;2022-12-10T07:08:22;1.10;;;1.10;;
24826;SDS011;12910;57.690;11.974;2022-12-10T07:10:48;1.07;;;1.07;;
24826;SDS011;12910;57.690;11.974;2022-12-10T07:13:13;1.23;;;1.23;;
24826;SDS011;12910;57.690;11.974;2022-12-10T07:15:39;1.20;;;1.20;;
24826;SDS011;12910;57.690;11.974;2022-12-10T07:18:04;1.73;;;1.17;;
24826;SDS011;12910;57.690;11.974;2022-12-10T07:20:29;1.67;;;1.57;;
24826;SDS011;12910;57.690;11.974;2022-12-10T07:22:55;1.63;;;1.53;;
24826;SDS011;12910;57.690;11.974;2022-12-10T07:25:20;1.77;;;1.67;;
24826;SDS011;12910;57.690;11.974;2022-12-10T07:27:46;1.83;;;1.73;;
24826;SDS011;12910;57.690;11.974;2022-12-10T07:30:11;7.13;;;2.07;;
24826;SDS011;12910;57.690;11.974;2022-12-10T07:32:36;1.80;;;1.70;;
24826;SDS011;12910;57.690;11.974;2022-12-10T07:35:02;1.60;;;1.50;;
24826;SDS011;12910;57.690;11.974;2022-12-10T07:37:27;1.70;;;1.60;;
24826;SDS011;12910;57.690;11.974;2022-12-10T07:39:53;1.87;;;1.50;;
24826;SDS011;12910;57.690;11.974;2022-12-10T07:42:18;1.73;;;1.63;;
24826;SDS011;12910;57.690;11.974;2022-12-10T07:44:44;1.63;;;1.53;;
24826;SDS011;12910;57.690;11.974;2022-12-10T07:47:09;1.27;;;1.17;;
24826;SDS011;12910;57.690;11.974;2022-12-10T07:49:34;1.63;;;1.53;;
24826;SDS011;12910;57.690;11.974;2022-12-10T07:52:00;1.60;;;1.50;;
24826;SDS011;12910;57.690;11.974;2022-12-10T07:54:25;1.40;;;1.30;;
24826;SDS011;12910;57.690;11.974;2022-12-10T07:56:50;1.60;;;1.40;;
24826;SDS011;12910;57.690;11.974;2022-12-10T07:59:16;1.70;;;1.60;;
24826;SDS011;12910;57.690;11.974;2022-12-10T08:01:41;1.57;;;1.43;;
24826;SDS011;12910;57.690;11.974;2022-12-10T08:04:07;1.23;;;1.13;;
24826;SDS011;12910;57.690;11.974;2022-12-10T08:06:32;2.23;;;1.80;;
24826;SDS011;12910;57.690;11.974;2022-12-10T08:08:58;2.47;;;1.70;;
24826;SDS011;12910;57.690;11.974;2022-12-10T08:11:24;1.37;;;1.30;;
24826;SDS011;12910;57.690;11.974;2022-12-10T08:13:51;1.20;;;1.10;;
24826;SDS011;12910;57.690;11.974;2022-12-10T08:16:17;2.33;;;1.30;;
24826;SDS011;12910;57.690;11.974;2022-12-10T08:18:44;1.77;;;1.67;;
24826;SDS011;12910;57.690;11.974;2022-12-10T08:21:14;2.27;;;1.83;;
24826;SDS011;12910;57.690;11.974;2022-12-10T08:23:42;1.80;;;1.63;;
24826;SDS011;12910;57.690;11.974;2022-12-10T08:26:19;1.87;;;1.73;;
24826;SDS011;12910;57.690;11.974;2022-12-10T08:28:50;2.07;;;1.97;;
24826;SDS011;12910;57.690;11.974;2022-12-10T08:31:17;1.73;;;1.63;;
24826;SDS011;12910;57.690;11.974;2022-12-10T08:33:44;1.43;;;1.33;;
24826;SDS011;12910;57.690;11.974;2022-12-10T08:36:10;1.47;;;1.37;;
24826;SDS011;12910;57.690;11.974;2022-12-10T08:38:38;6.77;;;1.63;;
24826;SDS011;12910;57.690;11.974;2022-12-10T08:43:34;2.50;;;2.30;;
24826;SDS011;12910;57.690;11.974;2022-12-10T08:46:00;2.27;;;1.83;;
24826;SDS011;12910;57.690;11.974;2022-12-10T08:48:26;2.00;;;1.90;;
24826;SDS011;12910;57.690;11.974;2022-12-10T08:50:51;2.10;;;1.90;;
24826;SDS011;12910;57.690;11.974;2022-12-10T08:53:16;1.83;;;1.73;;
24826;SDS011;12910;57.690;11.974;2022-12-10T08:55:42;2.23;;;2.03;;
24826;SDS011;12910;57.690;11.974;2022-12-10T08:58:07;1.73;;;1.63;;
24826;SDS011;12910;57.690;11.974;2022-12-10T09:00:34;1.70;;;1.60;;
24826;SDS011;12910;57.690;11.974;2022-12-10T09:03:00;2.13;;;2.00;;
24826;SDS011;12910;57.690;11.974;2022-12-10T09:05:25;1.67;;;1.57;;
24826;SDS011;12910;57.690;11.974;2022-12-10T09:07:50;2.17;;;2.00;;
24826;SDS011;12910;57.690;11.974;2022-12-10T09:10:16;2.13;;;2.00;;
24826;SDS011;12910;57.690;11.974;2022-12-10T09:12:41;2.20;;;2.10;;
24826;SDS011;12910;57.690;11.974;2022-12-10T09:15:08;1.87;;;1.77;;
24826;SDS011;12910;57.690;11.974;2022-12-10T09:17:35;2.00;;;1.90;;
24826;SDS011;12910;57.690;11.974;2022-12-10T09:20:02;2.40;;;2.20;;
24826;SDS011;12910;57.690;11.974;2022-12-10T09:22:28;2.23;;;2.03;;
24826;SDS011;12910;57.690;11.974;2022-12-10T09:24:54;2.43;;;2.23;;
24826;SDS011;12910;57.690;11.974;2022-12-10T09:27:19;2.73;;;2.53;;
24826;SDS011;12910;57.690;11.974;2022-12-10T09:29:45;5.30;;;1.93;;
24826;SDS011;12910;57.690;11.974;2022-12-10T09:32:11;1.90;;;1.80;;
24826;SDS011;12910;57.690;11.974;2022-12-10T09:34:36;1.60;;;1.50;;
24826;SDS011;12910;57.690;11.974;2022-12-10T09:37:01;2.10;;;1.90;;
24826;SDS011;12910;57.690;11.974;2022-12-10T09:39:27;2.43;;;2.23;;
24826;SDS011;12910;57.690;11.974;2022-12-10T09:42:02;3.37;;;2.10;;
24826;SDS011;12910;57.690;11.974;2022-12-10T09:47:49;2.07;;;1.83;;
24826;SDS011;12910;57.690;11.974;2022-12-10T09:52:54;2.07;;;1.87;;
24826;SDS011;12910;57.690;11.974;2022-12-10T09:55:26;2.70;;;1.83;;
24826;SDS011;12910;57.690;11.974;2022-12-10T09:57:58;1.90;;;1.80;;
24826;SDS011;12910;57.690;11.974;2022-12-10T10:00:40;2.37;;;2.17;;
24826;SDS011;12910;57.690;11.974;2022-12-10T10:03:12;2.00;;;1.87;;
24826;SDS011;12910;57.690;11.974;2022-12-10T10:05:44;2.10;;;1.90;;
24826;SDS011;12910;57.690;11.974;2022-12-10T10:08:14;2.33;;;2.13;;
24826;SDS011;12910;57.690;11.974;2022-12-10T10:10:48;2.90;;;2.70;;
24826;SDS011;12910;57.690;11.974;2022-12-10T10:13:15;2.30;;;2.20;;
24826;SDS011;12910;57.690;11.974;2022-12-10T10:15:43;2.30;;;2.10;;
24826;SDS011;12910;57.690;11.974;2022-12-10T10:21:21;2.10;;;2.00;;
24826;SDS011;12910;57.690;11.974;2022-12-10T10:23:56;1.73;;;1.63;;
24826;SDS011;12910;57.690;11.974;2022-12-10T10:26:23;2.60;;;2.10;;
24826;SDS011;12910;57.690;11.974;2022-12-10T10:28:51;2.00;;;1.67;;
24826;SDS011;12910;57.690;11.974;2022-12-10T10:31:22;2.77;;;2.57;;
24826;SDS011;12910;57.690;11.974;2022-12-10T10:33:56;2.27;;;2.17;;
24826;SDS011;12910;57.690;11.974;2022-12-10T10:36:28;1.97;;;1.87;;
24826;SDS011;12910;57.690;11.974;2022-12-10T10:38:55;2.30;;;2.20;;
24826;SDS011;12910;57.690;11.974;2022-12-10T10:41:23;6.50;;;2.47;;
24826;SDS011;12910;57.690;11.974;2022-12-10T10:43:51;2.53;;;2.37;;
24826;SDS011;12910;57.690;11.974;2022-12-10T10:46:24;1.90;;;1.80;;
24826;SDS011;12910;57.690;11.974;2022-12-10T10:48:50;3.10;;;2.90;;
24826;SDS011;12910;57.690;11.974;2022-12-10T10:51:20;1.47;;;1.37;;
24826;SDS011;12910;57.690;11.974;2022-12-10T10:53:52;2.90;;;2.70;;
24826;SDS011;12910;57.690;11.974;2022-12-10T10:58:54;1.77;;;1.67;;
24826;SDS011;12910;57.690;11.974;2022-12-10T11:01:24;2.77;;;2.57;;
24826;SDS011;12910;57.690;11.974;2022-12-10T11:03:55;2.03;;;1.93;;
24826;SDS011;12910;57.690;11.974;2022-12-10T11:06:23;2.50;;;2.33;;
24826;SDS011;12910;57.690;11.974;2022-12-10T11:08:49;2.40;;;2.20;;
24826;SDS011;12910;57.690;11.974;2022-12-10T11:11:20;2.27;;;2.07;;
24826;SDS011;12910;57.690;11.974;2022-12-10T11:14:24;2.57;;;2.37;;
24826;SDS011;12910;57.690;11.974;2022-12-10T11:19:34;1.83;;;1.73;;
24826;SDS011;12910;57.690;11.974;2022-12-10T11:24:56;2.27;;;2.17;;
24826;SDS011;12910;57.690;11.974;2022-12-10T11:30:04;2.00;;;1.90;;
24826;SDS011;12910;57.690;11.974;2022-12-10T11:32:46;2.90;;;1.90;;
24826;SDS011;12910;57.690;11.974;2022-12-10T11:38:02;1.90;;;1.80;;
24826;SDS011;12910;57.690;11.974;2022-12-10T11:40:44;1.70;;;1.60;;
24826;SDS011;12910;57.690;11.974;2022-12-10T11:51:08;1.40;;;1.30;;
24826;SDS011;12910;57.690;11.974;2022-12-10T12:09:54;2.17;;;2.00;;
24826;SDS011;12910;57.690;11.974;2022-12-10T12:12:50;1.43;;;1.37;;
24826;SDS011;12910;57.690;11.974;2022-12-10T12:17:56;1.60;;;1.50;;
24826;SDS011;12910;57.690;11.974;2022-12-10T12:23:29;1.70;;;1.60;;
24826;SDS011;12910;57.690;11.974;2022-12-10T12:26:03;1.93;;;1.83;;
24826;SDS011;12910;57.690;11.974;2022-12-10T12:28:41;2.20;;;2.10;;
24826;SDS011;12910;57.690;11.974;2022-12-10T12:31:31;1.80;;;1.70;;
24826;SDS011;12910;57.690;11.974;2022-12-10T12:34:37;2.23;;;2.07;;
24826;SDS011;12910;57.690;11.974;2022-12-10T12:37:11;1.47;;;1.33;;
24826;SDS011;12910;57.690;11.974;2022-12-10T12:42:27;2.63;;;2.43;;
24826;SDS011;12910;57.690;11.974;2022-12-10T12:47:39;2.00;;;1.90;;
24826;SDS011;12910;57.690;11.974;2022-12-10T12:52:52;2.73;;;2.57;;
24826;SDS011;12910;57.690;11.974;2022-12-10T12:58:13;5.57;;;2.97;;
24826;SDS011;12910;57.690;11.974;2022-12-10T13:00:46;2.30;;;2.10;;
24826;SDS011;12910;57.690;11.974;2022-12-10T13:05:49;2.13;;;1.93;;
24826;SDS011;12910;57.690;11.974;2022-12-10T13:24:20;5.60;;;2.17;;
24826;SDS011;12910;57.690;11.974;2022-12-10T13:34:46;8.23;;;3.03;;
24826;SDS011;12910;57.690;11.974;2022-12-10T13:37:26;1.93;;;1.83;;
24826;SDS011;12910;57.690;11.974;2022-12-10T13:42:33;2.60;;;2.40;;
24826;SDS011;12910;57.690;11.974;2022-12-10T13:53:43;4.30;;;3.03;;
24826;SDS011;12910;57.690;11.974;2022-12-10T13:56:16;2.87;;;2.67;;
24826;SDS011;12910;57.690;11.974;2022-12-10T14:04:58;3.23;;;3.03;;
24826;SDS011;12910;57.690;11.974;2022-12-10T14:07:37;3.37;;;3.17;;
24826;SDS011;12910;57.690;11.974;2022-12-10T14:10:03;3.07;;;2.87;;
24826;SDS011;12910;57.690;11.974;2022-12-10T14:12:40;2.80;;;2.60;;
24826;SDS011;12910;57.690;11.974;2022-12-10T14:15:14;3.37;;;3.13;;
24826;SDS011;12910;57.690;11.974;2022-12-10T14:17:46;7.30;;;3.53;;
24826;SDS011;12910;57.690;11.974;2022-12-10T14:20:14;3.67;;;3.47;;
24826;SDS011;12910;57.690;11.974;2022-12-10T14:22:47;4.53;;;4.13;;
24826;SDS011;12910;57.690;11.974;2022-12-10T14:25:19;3.57;;;3.30;;
24826;SDS011;12910;57.690;11.974;2022-12-10T14:27:47;3.70;;;3.30;;
24826;SDS011;12910;57.690;11.974;2022-12-10T14:30:21;5.20;;;3.30;;
24826;SDS011;12910;57.690;11.974;2022-12-10T14:32:55;4.00;;;3.43;;
24826;SDS011;12910;57.690;11.974;2022-12-10T14:35:24;4.20;;;3.90;;
24826;SDS011;12910;57.690;11.974;2022-12-10T14:37:53;6.43;;;4.37;;
24826;SDS011;12910;57.690;11.974;2022-12-10T14:43:19;4.43;;;4.13;;
24826;SDS011;12910;57.690;11.974;2022-12-10T14:45:53;5.47;;;3.00;;
24826;SDS011;12910;57.690;11.974;2022-12-10T14:48:23;4.90;;;4.20;;
24826;SDS011;12910;57.690;11.974;2022-12-10T14:50:49;4.50;;;4.07;;
24826;SDS011;12910;57.690;11.974;2022-12-10T14:53:18;8.07;;;3.93;;
24826;SDS011;12910;57.690;11.974;2022-12-10T14:55:48;4.17;;;3.77;;
24826;SDS011;12910;57.690;11.974;2022-12-10T14:59:01;5.53;;;3.93;;
24826;SDS011;12910;57.690;11.974;2022-12-10T15:01:11;4.23;;;3.83;;
24826;SDS011;12910;57.690;11.974;2022-12-10T15:03:43;10.17;;;4.03;;
24826;SDS011;12910;57.690;11.974;2022-12-10T15:06:12;12.93;;;4.07;;
24826;SDS011;12910;57.690;11.974;2022-12-10T15:08:41;7.43;;;3.53;;
24826;SDS011;12910;57.690;11.974;2022-12-10T15:11:10;4.37;;;3.40;;
24826;SDS011;12910;57.690;11.974;2022-12-10T15:13:43;4.40;;;4.10;;
24826;SDS011;12910;57.690;11.974;2022-12-10T15:16:16;6.57;;;3.57;;
24826;SDS011;12910;57.690;11.974;2022-12-10T15:18:43;3.67;;;3.37;;
24826;SDS011;12910;57.690;11.974;2022-12-10T15:21:15;4.33;;;3.93;;
24826;SDS011;12910;57.690;11.974;2022-12-10T15:23:44;3.73;;;3.43;;
24826;SDS011;12910;57.690;11.974;2022-12-10T15:26:24;4.67;;;4.37;;
24826;SDS011;12910;57.690;11.974;2022-12-10T15:29:14;3.27;;;3.07;;
24826;SDS011;12910;57.690;11.974;2022-12-10T15:31:47;3.73;;;3.53;;
24826;SDS011;12910;57.690;11.974;2022-12-10T15:34:14;4.10;;;3.80;;
24826;SDS011;12910;57.690;11.974;2022-12-10T15:39:37;6.13;;;4.37;;
24826;SDS011;12910;57.690;11.974;2022-12-10T15:42:07;4.67;;;4.37;;
24826;SDS011;12910;57.690;11.974;2022-12-10T15:44:37;5.90;;;4.40;;
24826;SDS011;12910;57.690;11.974;2022-12-10T15:47:21;7.17;;;4.00;;
24826;SDS011;12910;57.690;11.974;2022-12-10T15:49:49;4.67;;;3.70;;
24826;SDS011;12910;57.690;11.974;2022-12-10T15:52:26;4.27;;;3.97;;
24826;SDS011;12910;57.690;11.974;2022-12-10T15:54:55;4.07;;;3.77;;
24826;SDS011;12910;57.690;11.974;2022-12-10T15:57:39;4.53;;;4.13;;
24826;SDS011;12910;57.690;11.974;2022-12-10T16:00:17;5.43;;;5.07;;
24826;SDS011;12910;57.690;11.974;2022-12-10T16:05:19;3.73;;;3.47;;
24826;SDS011;12910;57.690;11.974;2022-12-10T16:07:48;8.73;;;5.17;;
24826;SDS011;12910;57.690;11.974;2022-12-10T16:10:16;5.30;;;4.17;;
24826;SDS011;12910;57.690;11.974;2022-12-10T16:12:43;17.63;;;4.30;;
24826;SDS011;12910;57.690;11.974;2022-12-10T16:15:17;4.07;;;3.77;;
24826;SDS011;12910;57.690;11.974;2022-12-10T16:17:45;5.63;;;5.13;;
24826;SDS011;12910;57.690;11.974;2022-12-10T16:20:27;4.90;;;4.50;;
24826;SDS011;12910;57.690;11.974;2022-12-10T16:22:54;4.80;;;4.40;;
24826;SDS011;12910;57.690;11.974;2022-12-10T16:25:21;4.93;;;4.53;;
24826;SDS011;12910;57.690;11.974;2022-12-10T16:27:48;5.07;;;4.67;;
24826;SDS011;12910;57.690;11.974;2022-12-10T16:30:15;6.80;;;4.13;;
24826;SDS011;12910;57.690;11.974;2022-12-10T16:32:44;4.53;;;4.23;;
24826;SDS011;12910;57.690;11.974;2022-12-10T16:35:10;4.77;;;4.43;;
24826;SDS011;12910;57.690;11.974;2022-12-10T16:37:38;5.33;;;4.93;;
24826;SDS011;12910;57.690;11.974;2022-12-10T16:40:05;5.50;;;5.10;;
24826;SDS011;12910;57.690;11.974;2022-12-10T16:42:31;4.57;;;4.23;;
24826;SDS011;12910;57.690;11.974;2022-12-10T16:44:57;4.90;;;4.60;;
24826;SDS011;12910;57.690;11.974;2022-12-10T16:47:22;4.33;;;4.03;;
24826;SDS011;12910;57.690;11.974;2022-12-10T16:49:47;5.83;;;4.30;;
24826;SDS011;12910;57.690;11.974;2022-12-10T16:52:13;4.43;;;4.13;;
24826;SDS011;12910;57.690;11.974;2022-12-10T16:54:39;5.20;;;4.80;;
24826;SDS011;12910;57.690;11.974;2022-12-10T16:57:10;4.77;;;4.47;;
24826;SDS011;12910;57.690;11.974;2022-12-10T16:59:37;5.43;;;5.00;;
24826;SDS011;12910;57.690;11.974;2022-12-10T17:02:02;4.27;;;3.97;;
24826;SDS011;12910;57.690;11.974;2022-12-10T17:04:27;4.57;;;4.17;;
24826;SDS011;12910;57.690;11.974;2022-12-10T17:06:53;3.73;;;3.43;;